Time;durP1;ratioP1;P1;durP2;ratioP2;P2;SDS_P1;SDS_P2;PMS_P1;PMS_P2;Temp;Humidity;BMP_temperature;BMP_pressure;BME280_temperature;BME280_humidity;BME280_pressure;Samples;Min_cycle;Max_cycle;Signal;HPM_P1;HPM_P2
2022/10/14 00:01:54;;;;;;;44.65;32.33;;;;;;;9.85;100.00;99813.25;5095481;28;20039;-82
2022/10/14 00:04:19;;;;;;;74.43;52.05;;;;;;;9.85;100.00;99796.81;5094800;28;20043;-82
2022/10/14 00:06:45;;;;;;;58.63;42.70;;;;;;;9.92;100.00;99808.66;5094963;28;20386;-82
2022/10/14 00:09:10;;;;;;;54.03;39.25;;;;;;;9.93;100.00;99803.38;5093600;28;20020;-82
2022/10/14 00:11:36;;;;;;;54.42;40.58;;;;;;;9.83;100.00;99794.28;5094997;28;20085;-81
2022/10/14 00:14:15;;;;;;;50.63;39.05;;;;;;;9.87;100.00;99787.19;5094478;28;20027;-82
2022/10/14 00:16:43;;;;;;;56.80;39.65;;;;;;;9.85;100.00;99792.44;5094835;28;20081;-82
2022/10/14 00:19:09;;;;;;;55.97;41.40;;;;;;;9.94;100.00;99810.31;5094629;28;20463;-82
2022/10/14 00:21:37;;;;;;;63.22;44.50;;;;;;;9.94;100.00;99804.22;5094755;28;20043;-82
2022/10/14 00:24:03;;;;;;;124.82;79.68;;;;;;;9.91;100.00;99796.56;5094476;28;20476;-82
2022/10/14 00:26:31;;;;;;;83.95;54.83;;;;;;;9.96;100.00;99800.66;5094540;28;20020;-82
2022/10/14 00:28:58;;;;;;;277.10;154.60;;;;;;;9.97;100.00;99797.16;5094584;28;20024;-82
2022/10/14 00:31:23;;;;;;;133.13;81.00;;;;;;;9.93;100.00;99787.78;5094684;28;20102;-81
2022/10/14 00:33:49;;;;;;;83.53;55.33;;;;;;;9.87;100.00;99779.41;5094596;28;20143;-82
2022/10/14 00:36:17;;;;;;;108.05;66.57;;;;;;;9.89;100.00;99786.22;5094167;28;20051;-82
2022/10/14 00:38:44;;;;;;;100.13;64.85;;;;;;;9.96;100.00;99798.06;5093138;28;20371;-82
2022/10/14 00:41:12;;;;;;;99.75;63.58;;;;;;;9.90;100.00;99784.44;5093993;28;20020;-81
2022/10/14 00:43:55;;;;;;;107.78;68.53;;;;;;;9.96;100.00;99794.63;5094138;28;20023;-81
2022/10/14 00:46:22;;;;;;;103.40;66.70;;;;;;;9.88;100.00;99776.72;5093472;28;20060;-81
2022/10/14 00:48:48;;;;;;;99.85;61.97;;;;;;;9.87;100.00;99777.63;5094171;28;20518;-81
2022/10/14 00:51:14;;;;;;;94.80;61.42;;;;;;;9.92;100.00;99785.25;5093912;28;20049;-81
2022/10/14 00:53:42;;;;;;;90.95;59.85;;;;;;;9.82;100.00;99768.31;5093937;28;20024;-81
2022/10/14 00:56:10;;;;;;;82.57;54.40;;;;;;;9.81;100.00;99772.66;5093724;28;20404;-81
2022/10/14 00:58:37;;;;;;;63.80;44.63;;;;;;;9.80;100.00;99775.34;5094058;28;20016;-81
2022/10/14 01:01:02;;;;;;;58.92;40.85;;;;;;;9.65;100.00;99759.47;5093823;28;20031;-81
2022/10/14 01:03:28;;;;;;;60.00;41.97;;;;;;;9.61;100.00;99757.06;5093938;28;20512;-81
2022/10/14 01:06:00;;;;;;;67.30;44.75;;;;;;;9.60;100.00;99773.56;5093929;28;20016;-82
2022/10/14 01:08:51;;;;;;;68.22;45.88;;;;;;;9.56;100.00;99775.44;5094015;28;20023;-82
2022/10/14 01:11:27;;;;;;;64.35;44.88;;;;;;;9.49;100.00;99758.41;5093460;28;20058;-82
2022/10/14 01:13:59;;;;;;;59.70;42.42;;;;;;;9.47;100.00;99745.44;5093628;28;20459;-81
2022/10/14 01:16:35;;;;;;;61.13;41.90;;;;;;;9.53;100.00;99762.56;5093305;28;20061;-82
2022/10/14 01:19:22;;;;;;;58.88;42.38;;;;;;;9.54;100.00;99772.06;5093555;28;20387;-82
2022/10/14 01:21:54;;;;;;;61.50;41.75;;;;;;;9.49;100.00;99763.59;5093905;28;20337;-81
2022/10/14 01:24:43;;;;;;;59.72;41.00;;;;;;;9.54;100.00;99761.66;5092028;28;20019;-81
2022/10/14 01:27:08;;;;;;;60.42;45.08;;;;;;;9.57;100.00;99763.28;5093138;28;20107;-82
2022/10/14 01:29:58;;;;;;;63.88;45.45;;;;;;;9.59;100.00;99777.91;5093584;28;20107;-82
2022/10/14 01:32:30;;;;;;;61.90;44.05;;;;;;;9.59;100.00;99766.66;5093029;28;20024;-82
2022/10/14 01:35:41;;;;;;;59.55;41.70;;;;;;;9.58;100.00;99764.97;5093286;28;20031;-81
2022/10/14 01:38:16;;;;;;;59.30;43.03;;;;;;;9.50;100.00;99747.94;4971494;28;20093;-81
2022/10/14 01:40:49;;;;;;;68.93;44.70;;;;;;;9.55;100.00;99747.75;4971807;28;20066;-82
2022/10/14 01:43:17;;;;;;;60.70;44.55;;;;;;;9.58;100.00;99759.78;4971559;28;20521;-82
2022/10/14 01:45:47;;;;;;;63.80;42.50;;;;;;;9.56;100.00;99754.63;4971693;28;20026;-81
2022/10/14 01:48:16;;;;;;;59.92;40.25;;;;;;;9.53;100.00;99749.56;4971426;28;20077;-81
2022/10/14 01:50:45;;;;;;;58.20;41.45;;;;;;;9.60;100.00;99757.94;4971646;28;20030;-82
2022/10/14 01:53:20;;;;;;;57.70;41.10;;;;;;;9.60;100.00;99753.59;4971382;28;20058;-82
2022/10/14 01:55:47;;;;;;;52.15;39.45;;;;;;;9.63;100.00;99758.69;4954919;28;20379;-82
2022/10/14 01:58:15;;;;;;;57.35;40.00;;;;;;;9.57;100.00;99742.50;4955061;28;20034;-82
2022/10/14 02:00:41;;;;;;;54.90;39.65;;;;;;;9.59;100.00;99756.28;4971350;28;20456;-82
2022/10/14 02:03:06;;;;;;;55.22;39.17;;;;;;;9.50;100.00;99753.13;4971179;28;20039;-82
2022/10/14 02:05:38;;;;;;;54.08;40.40;;;;;;;9.54;100.00;99756.47;4971408;28;20102;-82
2022/10/14 02:08:10;;;;;;;51.95;37.45;;;;;;;9.47;100.00;99747.19;4971122;28;20105;-81
2022/10/14 02:10:42;;;;;;;52.88;38.30;;;;;;;9.57;100.00;99763.28;4971397;28;20026;-82
2022/10/14 02:13:16;;;;;;;53.25;39.00;;;;;;;9.49;100.00;99746.25;4971048;28;20572;-82
2022/10/14 02:16:06;;;;;;;59.58;41.10;;;;;;;9.63;100.00;99755.22;5076843;28;20066;-81
2022/10/14 02:18:44;;;;;;;55.90;38.50;;;;;;;9.70;100.00;99760.13;5092479;28;20032;-81
2022/10/14 02:21:38;;;;;;;52.92;38.30;;;;;;;9.71;100.00;99763.56;5090829;28;20362;-81
2022/10/14 02:24:18;;;;;;;56.40;38.80;;;;;;;9.64;100.00;99749.13;5092724;28;20024;-82
2022/10/14 02:26:45;;;;;;;59.25;40.38;;;;;;;9.72;100.00;99757.44;5092457;28;20047;-82
2022/10/14 02:29:11;;;;;;;56.97;40.10;;;;;;;9.74;100.00;99750.44;5092057;28;20023;-81
2022/10/14 02:31:40;;;;;;;57.95;40.75;;;;;;;9.74;100.00;99738.28;5092173;28;20099;-81
2022/10/14 02:34:11;;;;;;;55.92;39.25;;;;;;;9.79;100.00;99752.84;5092140;28;20028;-82
2022/10/14 02:36:38;;;;;;;56.63;41.90;;;;;;;9.83;100.00;99744.00;5092721;28;20042;-81
2022/10/14 02:39:08;;;;;;;65.50;40.33;;;;;;;9.83;100.00;99752.66;5092482;28;20023;-82
2022/10/14 02:41:36;;;;;;;57.05;40.67;;;;;;;9.75;100.00;99742.56;5092273;28;20016;-81
2022/10/14 02:44:04;;;;;;;61.45;41.05;;;;;;;9.75;100.00;99739.97;5092071;28;20031;-82
2022/10/14 02:46:29;;;;;;;61.83;39.42;;;;;;;9.73;100.00;99743.53;5092351;28;20069;-82
2022/10/14 02:48:54;;;;;;;55.92;38.95;;;;;;;9.66;100.00;99739.50;5092177;28;20016;-82
2022/10/14 02:51:20;;;;;;;56.40;39.15;;;;;;;9.58;100.00;99738.97;5091949;28;20103;-82
2022/10/14 02:53:45;;;;;;;56.97;39.45;;;;;;;9.47;100.00;99732.44;5092150;28;20045;-81
2022/10/14 02:56:12;;;;;;;56.70;40.78;;;;;;;9.49;100.00;99745.41;5092080;28;20048;-82
2022/10/14 02:58:38;;;;;;;63.53;41.10;;;;;;;9.40;100.00;99736.22;5091858;28;20023;-82
2022/10/14 03:01:03;;;;;;;59.72;40.67;;;;;;;9.31;100.00;99728.78;5091872;28;20020;-81
2022/10/14 03:03:28;;;;;;;56.63;40.67;;;;;;;9.34;100.00;99739.06;5091784;28;20359;-82
2022/10/14 03:05:54;;;;;;;54.80;40.30;;;;;;;9.34;100.00;99735.63;5091955;28;20413;-81
2022/10/14 03:08:19;;;;;;;56.83;41.42;;;;;;;9.29;100.00;99728.00;5092186;28;20054;-82
2022/10/14 03:10:46;;;;;;;63.03;40.33;;;;;;;9.31;100.00;99735.72;5096048;28;20416;-82
2022/10/14 03:13:12;;;;;;;61.78;41.13;;;;;;;9.18;100.00;99712.81;5095602;28;20020;-81
2022/10/14 03:15:37;;;;;;;58.85;41.65;;;;;;;9.28;100.00;99741.91;5096107;28;20359;-81
2022/10/14 03:18:03;;;;;;;55.95;39.28;;;;;;;9.17;100.00;99729.31;5096390;28;20462;-81
2022/10/14 03:20:28;;;;;;;59.58;39.63;;;;;;;9.19;100.00;99737.94;5094226;28;20115;-81
2022/10/14 03:22:53;;;;;;;55.75;38.20;;;;;;;9.17;100.00;99731.94;5096154;28;20027;-81
2022/10/14 03:25:19;;;;;;;56.92;39.33;;;;;;;9.22;100.00;99744.75;5095578;28;20016;-82
2022/10/14 03:27:44;;;;;;;53.85;39.42;;;;;;;9.19;100.00;99734.47;5095677;28;20103;-81
2022/10/14 03:30:10;;;;;;;58.95;40.05;;;;;;;9.16;100.00;99735.44;5095649;28;20471;-81
2022/10/14 03:32:35;;;;;;;59.28;41.92;;;;;;;9.11;100.00;99727.00;5094432;28;20048;-81
2022/10/14 03:35:00;;;;;;;62.72;41.55;;;;;;;9.11;100.00;99729.59;5094494;28;20024;-82
2022/10/14 03:37:26;;;;;;;57.72;42.33;;;;;;;9.15;100.00;99738.13;5095361;28;20020;-81
2022/10/14 03:39:52;;;;;;;54.45;39.28;;;;;;;9.09;100.00;99733.13;5095342;28;20027;-82
2022/10/14 03:42:17;;;;;;;57.22;41.83;;;;;;;9.07;100.00;99729.78;5095130;28;20016;-81
2022/10/14 03:44:43;;;;;;;63.30;41.58;;;;;;;9.06;100.00;99728.94;5095580;28;20024;-82
2022/10/14 03:47:09;;;;;;;57.28;40.63;;;;;;;9.07;100.00;99720.22;5095430;28;20021;-81
2022/10/14 03:49:34;;;;;;;61.22;40.80;;;;;;;9.17;100.00;99738.88;5095465;28;20016;-82
2022/10/14 03:51:59;;;;;;;59.28;40.85;;;;;;;9.07;100.00;99724.56;5095424;28;20402;-82
2022/10/14 03:54:25;;;;;;;57.28;42.20;;;;;;;9.13;100.00;99734.72;5095063;28;20463;-81
2022/10/14 03:56:50;;;;;;;55.70;39.13;;;;;;;9.11;100.00;99733.94;5095244;28;20359;-81
2022/10/14 03:59:15;;;;;;;56.83;39.75;;;;;;;9.08;100.00;99734.06;5095233;28;20539;-81
2022/10/14 04:01:41;;;;;;;64.57;42.13;;;;;;;9.11;100.00;99734.78;5095285;28;20098;-82
2022/10/14 04:04:06;;;;;;;58.33;41.25;;;;;;;9.12;100.00;99731.28;5095153;28;20016;-82
2022/10/14 04:06:32;;;;;;;63.97;41.85;;;;;;;9.18;100.00;99736.22;5094868;28;20044;-82
2022/10/14 04:08:57;;;;;;;63.08;43.80;;;;;;;9.17;100.00;99729.31;5093700;28;20016;-81
2022/10/14 04:11:22;;;;;;;59.97;44.05;;;;;;;9.19;100.00;99734.47;5094516;28;20076;-81
2022/10/14 04:13:48;;;;;;;66.88;43.47;;;;;;;9.29;100.00;99734.97;5094740;28;20024;-82
2022/10/14 04:16:13;;;;;;;70.75;44.15;;;;;;;9.30;100.00;99734.88;5095056;28;20347;-82
2022/10/14 04:18:38;;;;;;;69.13;47.30;;;;;;;9.30;100.00;99734.03;5094968;28;20020;-82
2022/10/14 04:21:07;;;;;;;84.35;47.97;;;;;;;9.27;100.00;99715.97;5094683;28;20471;-81
2022/10/14 04:23:33;;;;;;;102.28;61.25;;;;;;;9.30;100.00;99723.66;5094477;28;20402;-82
2022/10/14 04:26:03;;;;;;;105.10;62.25;;;;;;;9.35;100.00;99725.16;5094643;28;20451;-82
2022/10/14 04:28:28;;;;;;;125.10;72.25;;;;;;;9.43;100.00;99725.69;5094607;28;20024;-82
2022/10/14 04:30:53;;;;;;;108.30;62.58;;;;;;;9.45;100.00;99726.47;5094511;28;20344;-82
2022/10/14 04:33:19;;;;;;;84.65;54.22;;;;;;;9.47;100.00;99724.66;5094562;28;20102;-81
2022/10/14 04:35:44;;;;;;;68.60;44.75;;;;;;;9.44;100.00;99713.56;5094471;28;20102;-82
2022/10/14 04:38:09;;;;;;;66.65;42.90;;;;;;;9.49;100.00;99715.06;5094639;28;20123;-82
2022/10/14 04:40:35;;;;;;;56.33;39.50;;;;;;;9.47;100.00;99701.25;5093953;28;20027;-82
2022/10/14 04:43:00;;;;;;;64.72;41.67;;;;;;;9.49;100.00;99701.22;5094415;28;20070;-82
2022/10/14 04:45:25;;;;;;;65.50;44.17;;;;;;;9.50;100.00;99705.50;5094204;28;20555;-82
2022/10/14 04:47:51;;;;;;;59.22;41.17;;;;;;;9.49;100.00;99699.44;5094297;28;20103;-82
2022/10/14 04:50:17;;;;;;;57.08;39.42;;;;;;;9.62;100.00;99714.53;5093797;28;20024;-82
2022/10/14 04:52:43;;;;;;;60.30;39.38;;;;;;;9.62;100.00;99712.78;5094200;28;20020;-82
2022/10/14 04:55:09;;;;;;;62.47;39.88;;;;;;;9.61;100.00;99712.84;5093966;28;20039;-82
2022/10/14 04:57:34;;;;;;;55.60;41.78;;;;;;;9.56;100.00;99700.03;5093960;28;20483;-82
2022/10/14 05:00:00;;;;;;;56.15;39.65;;;;;;;9.60;100.00;99711.97;5093977;28;20344;-82
2022/10/14 05:02:25;;;;;;;64.00;41.15;;;;;;;9.53;100.00;99692.38;5093761;28;20023;-82
2022/10/14 05:04:51;;;;;;;55.85;37.72;;;;;;;9.63;100.00;99709.28;5093956;28;20031;-82
2022/10/14 05:07:16;;;;;;;57.80;37.88;;;;;;;9.65;100.00;99706.59;5092391;28;20043;-82
2022/10/14 05:09:41;;;;;;;54.92;39.60;;;;;;;9.56;100.00;99692.22;5093823;28;20016;-82
2022/10/14 05:12:07;;;;;;;54.15;36.63;;;;;;;9.64;100.00;99700.53;5093667;28;20142;-82
2022/10/14 05:14:32;;;;;;;55.60;38.30;;;;;;;9.67;100.00;99694.38;5093765;28;20044;-82
2022/10/14 05:16:58;;;;;;;54.08;37.25;;;;;;;9.69;100.00;99693.41;5094023;28;20084;-82
2022/10/14 05:19:23;;;;;;;51.85;37.30;;;;;;;9.69;100.00;99693.41;5092300;28;20020;-82
2022/10/14 05:21:49;;;;;;;53.83;38.33;;;;;;;9.61;100.00;99690.31;5094146;28;20020;-81
2022/10/14 05:24:14;;;;;;;55.20;37.13;;;;;;;9.61;100.00;99690.31;5093546;28;20097;-82
2022/10/14 05:26:39;;;;;;;51.25;36.83;;;;;;;9.56;100.00;99679.22;5093089;28;20035;-83
2022/10/14 05:29:05;;;;;;;50.03;37.28;;;;;;;9.61;100.00;99695.50;5093530;28;20020;-82
2022/10/14 05:31:30;;;;;;;59.00;37.92;;;;;;;9.51;100.00;99681.16;5092540;28;20048;-82
2022/10/14 05:33:56;;;;;;;54.20;38.83;;;;;;;9.57;100.00;99682.69;5093402;28;20400;-82
2022/10/14 05:36:21;;;;;;;53.53;37.92;;;;;;;9.61;100.00;99671.25;5093116;28;20020;-82
2022/10/14 05:38:47;;;;;;;57.15;39.22;;;;;;;9.67;100.00;99681.38;5093229;28;20022;-83
2022/10/14 05:41:12;;;;;;;48.22;36.38;;;;;;;9.70;100.00;99682.09;5092909;28;20459;-82
2022/10/14 05:43:38;;;;;;;50.72;35.45;;;;;;;9.74;100.00;99688.88;5093048;28;20024;-82
2022/10/14 05:46:03;;;;;;;49.65;36.40;;;;;;;9.71;100.00;99686.38;5093202;28;20016;-82
2022/10/14 05:48:29;;;;;;;52.40;38.60;;;;;;;9.74;100.00;99685.44;5092803;28;20031;-82
2022/10/14 05:50:54;;;;;;;59.42;39.67;;;;;;;9.84;100.00;99698.88;5093028;28;20024;-82
2022/10/14 05:53:20;;;;;;;55.00;38.28;;;;;;;9.92;100.00;99696.78;5093011;28;20111;-82
2022/10/14 05:55:45;;;;;;;55.42;39.95;;;;;;;9.89;100.00;99682.16;5093053;28;20024;-82
2022/10/14 05:58:10;;;;;;;55.05;39.00;;;;;;;9.93;100.00;99688.91;5093413;28;20020;-82
2022/10/14 06:00:36;;;;;;;59.33;39.15;;;;;;;10.03;100.00;99688.50;5092355;28;20107;-82
2022/10/14 06:03:01;;;;;;;52.53;38.50;;;;;;;10.06;100.00;99696.19;5092952;28;20027;-82
2022/10/14 06:05:26;;;;;;;52.90;36.35;;;;;;;10.10;100.00;99690.78;5092526;28;20099;-82
2022/10/14 06:07:52;;;;;;;51.13;38.10;;;;;;;10.16;100.00;99692.28;5092989;28;20119;-82
2022/10/14 06:10:17;;;;;;;50.28;37.05;;;;;;;10.16;100.00;99692.28;5092581;28;20047;-82
2022/10/14 06:12:42;;;;;;;52.33;35.28;;;;;;;10.14;100.00;99687.13;5092208;28;20020;-82
2022/10/14 06:15:08;;;;;;;53.17;36.53;;;;;;;10.23;100.00;99689.31;5092706;28;20038;-82
2022/10/14 06:17:33;;;;;;;57.05;39.38;;;;;;;10.26;100.00;99688.38;5092359;28;20031;-82
2022/10/14 06:19:59;;;;;;;50.08;35.30;;;;;;;10.27;100.00;99690.06;5092441;28;20020;-82
2022/10/14 06:22:24;;;;;;;51.88;37.33;;;;;;;10.32;100.00;99693.28;5092660;28;20093;-82
2022/10/14 06:24:49;;;;;;;52.92;37.70;;;;;;;10.31;100.00;99683.81;5092383;28;20146;-82
2022/10/14 06:27:15;;;;;;;54.40;36.17;;;;;;;10.31;100.00;99688.16;5092642;28;20153;-82
2022/10/14 06:29:40;;;;;;;55.70;37.72;;;;;;;10.39;100.00;99688.66;5092581;28;20051;-82
2022/10/14 06:32:07;;;;;;;53.35;38.45;;;;;;;10.39;100.00;99688.66;5091133;28;20027;-82
2022/10/14 06:34:33;;;;;;;51.20;37.13;;;;;;;10.48;100.00;99698.66;5090679;28;20076;-82
2022/10/14 06:36:59;;;;;;;51.38;36.90;;;;;;;10.58;100.00;99699.94;5090922;28;20113;-82
2022/10/14 06:39:25;;;;;;;57.20;38.22;;;;;;;10.57;100.00;99694.78;5091775;28;20089;-82
2022/10/14 06:41:50;;;;;;;53.22;37.10;;;;;;;10.56;100.00;99691.34;5092607;28;20478;-82
2022/10/14 06:44:16;;;;;;;59.97;38.42;;;;;;;10.58;100.00;99688.69;5092223;28;20343;-82
2022/10/14 06:46:42;;;;;;;53.10;37.72;;;;;;;10.60;100.00;99695.50;5092057;28;20352;-82
2022/10/14 06:49:08;;;;;;;56.78;39.53;;;;;;;10.63;100.00;99691.94;5092131;28;20023;-82
2022/10/14 06:51:34;;;;;;;54.47;38.28;;;;;;;10.58;100.00;99694.75;5091851;28;20039;-82
2022/10/14 06:53:59;;;;;;;49.15;36.92;;;;;;;10.57;100.00;99690.44;5091962;28;20024;-83
2022/10/14 06:56:24;;;;;;;54.65;37.38;;;;;;;10.79;100.00;99690.31;5092016;28;20020;-82
2022/10/14 06:58:56;;;;;;;56.05;37.40;;;;;;;11.12;100.00;99694.81;5092233;28;20051;-82
2022/10/14 07:01:21;;;;;;;53.65;37.33;;;;;;;11.58;100.00;99664.69;5092082;28;20066;-82
2022/10/14 07:03:47;;;;;;;51.78;36.95;;;;;;;12.61;100.00;99682.88;5091768;28;20020;-82
2022/10/14 07:06:12;;;;;;;50.92;34.83;;;;;;;14.54;100.00;99690.84;5091783;28;20429;-82
2022/10/14 07:08:38;;;;;;;51.70;35.42;;;;;;;15.58;93.40;99689.34;5091642;28;20051;-83
2022/10/14 07:11:04;;;;;;;49.92;34.08;;;;;;;15.69;89.09;99707.03;5090795;28;20402;-82
2022/10/14 07:13:31;;;;;;;46.30;34.88;;;;;;;15.90;88.94;99692.47;5091328;28;20476;-82
2022/10/14 07:15:56;;;;;;;45.20;32.83;;;;;;;16.35;88.08;99708.66;5091945;28;20024;-83
2022/10/14 07:18:22;;;;;;;47.25;32.92;;;;;;;16.44;84.63;99689.59;5091861;28;20103;-82
2022/10/14 07:20:47;;;;;;;44.92;31.13;;;;;;;16.19;84.07;99708.03;5091640;28;20389;-82
2022/10/14 07:23:13;;;;;;;41.50;30.38;;;;;;;16.30;85.10;99702.03;5091658;28;20103;-83
2022/10/14 07:25:38;;;;;;;48.55;31.58;;;;;;;15.94;84.19;99711.50;5091496;28;20016;-83
2022/10/14 07:28:04;;;;;;;45.72;31.52;;;;;;;15.75;85.59;99708.41;5092150;28;20060;-82
2022/10/14 07:30:30;;;;;;;45.55;32.67;;;;;;;15.48;85.96;99694.38;5091560;28;20388;-82
2022/10/14 07:32:55;;;;;;;40.78;29.58;;;;;;;15.40;86.75;99711.56;5091866;28;20439;-83
2022/10/14 07:35:20;;;;;;;38.75;31.30;;;;;;;15.45;87.74;99707.69;5091702;28;20031;-83
2022/10/14 07:37:46;;;;;;;45.85;33.35;;;;;;;15.25;86.67;99702.91;5091408;28;20016;-82
2022/10/14 07:40:12;;;;;;;49.92;31.58;;;;;;;14.87;88.00;99708.81;5090545;28;20027;-82
2022/10/14 07:42:37;;;;;;;42.60;31.40;;;;;;;14.88;88.59;99702.66;5090602;28;20024;-82
2022/10/14 07:45:04;;;;;;;40.50;29.38;;;;;;;15.22;88.74;99705.75;5082353;28;20020;-82
2022/10/14 07:47:31;;;;;;;47.08;32.75;;;;;;;15.27;86.51;99700.19;5087661;28;20486;-82
2022/10/14 07:49:57;;;;;;;41.30;29.52;;;;;;;15.24;87.44;99706.47;5091694;28;20348;-82
2022/10/14 07:52:22;;;;;;;40.60;31.02;;;;;;;15.03;87.72;99690.34;5091410;28;20057;-82
2022/10/14 07:54:47;;;;;;;52.78;32.17;;;;;;;14.91;88.02;99693.72;5085021;28;20024;-82
2022/10/14 07:57:13;;;;;;;41.33;30.85;;;;;;;15.11;88.35;99702.97;5086337;28;20139;-81
2022/10/14 07:59:38;;;;;;;40.30;30.08;;;;;;;15.20;87.81;99691.88;5077504;28;20048;-82
2022/10/14 08:02:04;;;;;;;38.17;28.02;;;;;;;15.38;87.97;99703.81;5074594;28;20452;-82
2022/10/14 08:04:30;;;;;;;37.58;29.30;;;;;;;15.56;87.75;99703.53;5074321;28;20021;-82
2022/10/14 08:06:55;;;;;;;36.53;28.45;;;;;;;15.79;87.60;99707.25;5072931;28;20040;-83
2022/10/14 08:09:20;;;;;;;36.17;27.95;;;;;;;15.93;86.94;99704.56;5075002;28;20043;-82
2022/10/14 08:11:46;;;;;;;33.72;27.17;;;;;;;16.13;86.61;99704.03;5074376;28;20086;-82
2022/10/14 08:14:12;;;;;;;39.38;26.63;;;;;;;16.45;86.17;99698.34;5074546;28;20143;-82
2022/10/14 08:16:38;;;;;;;35.42;25.17;;;;;;;16.88;84.85;99711.09;5076361;28;20107;-82
2022/10/14 08:19:09;;;;;;;39.30;29.00;;;;;;;16.99;82.86;99712.97;5084403;28;20012;-82
2022/10/14 08:21:35;;;;;;;40.75;27.60;;;;;;;17.35;82.14;99714.69;5074117;28;20099;-82
2022/10/14 08:24:00;;;;;;;37.63;27.25;;;;;;;17.39;82.05;99709.09;5074722;28;20111;-82
2022/10/14 08:26:32;;;;;;;38.38;29.17;;;;;;;17.31;80.72;99711.44;5081329;28;20069;-82
2022/10/14 08:29:00;;;;;;;41.38;27.95;;;;;;;17.32;80.10;99712.28;5094524;28;20467;-83
2022/10/14 08:31:25;;;;;;;33.42;26.25;;;;;;;17.17;80.53;99707.19;5094586;28;20073;-82
2022/10/14 08:33:51;;;;;;;38.92;27.10;;;;;;;16.96;81.56;99706.97;5094232;28;20052;-82
2022/10/14 08:36:18;;;;;;;36.17;25.90;;;;;;;16.73;82.19;99696.41;5094383;28;20526;-83
2022/10/14 08:38:44;;;;;;;40.63;28.17;;;;;;;16.55;82.30;99696.72;5094282;28;20101;-82
2022/10/14 08:41:12;;;;;;;41.20;30.58;;;;;;;16.35;82.40;99703.41;5094384;28;20047;-82
2022/10/14 08:43:59;;;;;;;41.50;29.67;;;;;;;16.15;83.38;99701.31;5092788;28;20363;-83
2022/10/14 08:46:35;;;;;;;37.65;29.17;;;;;;;15.95;83.89;99684.28;5094424;28;20048;-83
2022/10/14 08:49:27;;;;;;;43.40;29.40;;;;;;;15.94;84.08;99699.19;5094312;28;20019;-83
2022/10/14 08:52:07;;;;;;;38.78;29.48;;;;;;;15.85;84.47;99691.94;5094426;28;20051;-82
2022/10/14 08:54:43;;;;;;;37.08;25.75;;;;;;;15.87;84.56;99700.53;5093937;28;20016;-83
2022/10/14 08:57:16;;;;;;;40.03;27.90;;;;;;;15.88;85.23;99710.09;5094101;28;20059;-83
2022/10/14 08:59:42;;;;;;;42.83;32.50;;;;;;;15.90;85.38;99705.59;5093498;28;20459;-83
2022/10/14 09:02:26;;;;;;;46.25;31.27;;;;;;;15.95;85.40;99705.28;5094019;28;20031;-82
2022/10/14 09:04:51;;;;;;;36.88;28.50;;;;;;;15.94;85.46;99691.31;5093148;28;20070;-82
2022/10/14 09:07:18;;;;;;;39.58;31.38;;;;;;;16.07;85.08;99701.81;5070110;28;20598;-82
2022/10/14 09:09:48;;;;;;;45.10;31.48;;;;;;;16.11;84.91;99698.03;5070839;28;20048;-82
2022/10/14 09:12:19;;;;;;;40.22;29.92;;;;;;;16.16;85.07;99701.19;5071041;28;20043;-82
2022/10/14 09:15:01;;;;;;;35.75;27.85;;;;;;;16.20;85.26;99701.81;5070644;28;20028;-82
2022/10/14 09:17:33;;;;;;;36.33;27.75;;;;;;;16.15;85.65;99696.88;5070937;28;20484;-83
2022/10/14 09:20:14;;;;;;;38.72;29.80;;;;;;;16.11;85.80;99699.84;5070768;28;20040;-82
2022/10/14 09:22:40;;;;;;;38.28;28.58;;;;;;;16.10;85.91;99708.66;5070586;28;20028;-82
2022/10/14 09:25:13;;;;;;;36.78;27.27;;;;;;;16.01;86.23;99707.47;5070781;28;20472;-83
2022/10/14 09:27:39;;;;;;;38.38;27.73;;;;;;;16.06;86.22;99709.81;5070661;28;20380;-82
2022/10/14 09:30:09;;;;;;;34.95;25.75;;;;;;;16.07;86.49;99701.00;5070775;28;20066;-83
2022/10/14 09:32:48;;;;;;;33.90;26.48;;;;;;;16.13;86.35;99695.31;5070478;28;20048;-83
2022/10/14 09:35:23;;;;;;;35.72;26.15;;;;;;;16.27;85.80;99699.63;5070608;28;20363;-82
2022/10/14 09:37:49;;;;;;;37.38;26.17;;;;;;;16.29;85.54;99692.47;5070328;28;20032;-83
2022/10/14 09:40:20;;;;;;;34.50;25.50;;;;;;;16.37;85.46;99692.78;5070407;28;20025;-83
2022/10/14 09:43:11;;;;;;;33.28;23.67;;;;;;;16.41;85.79;99695.06;5070192;28;20515;-82
2022/10/14 09:45:55;;;;;;;34.55;25.85;;;;;;;16.42;85.58;99683.59;5089983;28;20040;-83
2022/10/14 09:48:38;;;;;;;39.25;29.40;;;;;;;16.36;84.75;99673.53;5093090;28;20020;-82
2022/10/14 09:51:09;;;;;;;37.88;26.10;;;;;;;16.49;84.51;99680.56;5092941;28;20054;-83
2022/10/14 09:53:44;;;;;;;33.20;25.30;;;;;;;16.46;84.56;99666.66;5092902;28;20016;-83
2022/10/14 09:56:10;;;;;;;40.88;27.90;;;;;;;16.21;83.91;99674.59;5093008;28;20024;-83
2022/10/14 09:58:42;;;;;;;39.22;28.00;;;;;;;16.19;84.53;99687.84;5092676;28;20411;-83
2022/10/14 10:01:14;;;;;;;39.20;26.90;;;;;;;16.16;85.02;99672.28;5092782;28;20119;-83
2022/10/14 10:03:40;;;;;;;33.88;26.92;;;;;;;16.21;84.50;99682.47;5092373;28;20099;-83
2022/10/14 10:06:08;;;;;;;37.58;27.80;;;;;;;16.34;84.26;99688.56;5092683;28;20115;-83
2022/10/14 10:08:40;;;;;;;35.58;26.10;;;;;;;16.42;84.55;99682.75;5091372;28;20024;-83
2022/10/14 10:11:09;;;;;;;38.45;25.60;;;;;;;16.44;84.38;99673.84;5092842;28;20032;-83
2022/10/14 10:13:45;;;;;;;40.10;28.10;;;;;;;16.34;84.36;99671.94;5091261;28;20422;-83
2022/10/14 10:16:24;;;;;;;41.80;25.92;;;;;;;16.28;84.66;99673.22;5092403;28;20016;-83
2022/10/14 10:18:52;;;;;;;36.72;25.15;;;;;;;16.44;84.72;99673.84;5092492;28;20020;-83
2022/10/14 10:21:26;;;;;;;39.25;25.15;;;;;;;16.49;84.39;99678.75;5092566;28;20020;-83
2022/10/14 10:24:00;;;;;;;33.53;25.40;;;;;;;16.39;85.01;99681.22;5092294;28;20085;-83
2022/10/14 10:26:32;;;;;;;34.88;25.05;;;;;;;16.33;85.12;99660.59;5091135;28;20031;-82
2022/10/14 10:29:01;;;;;;;32.40;25.13;;;;;;;16.36;84.93;99654.28;5092337;28;20020;-82
2022/10/14 10:31:46;;;;;;;36.20;25.13;;;;;;;16.46;85.14;99671.09;5092461;28;20106;-83
2022/10/14 10:34:50;;;;;;;33.10;24.23;;;;;;;16.49;85.00;99670.03;5092403;28;20020;-83
2022/10/14 10:37:28;;;;;;;33.55;23.80;;;;;;;16.51;85.16;99649.72;5092371;28;20012;-83
2022/10/14 10:40:06;;;;;;;33.15;22.23;;;;;;;16.64;84.63;99664.53;5091386;28;20020;-83
2022/10/14 10:42:39;;;;;;;38.95;24.67;;;;;;;16.44;83.07;99655.44;5092194;28;20026;-82
2022/10/14 10:45:26;;;;;;;33.15;23.65;;;;;;;16.30;84.05;99659.97;5080174;28;20012;-82
2022/10/14 10:48:06;;;;;;;25.58;20.67;;;;;;;16.27;84.59;99647.91;5075860;28;20024;-82
2022/10/14 10:50:46;;;;;;;25.35;19.30;;;;;;;16.34;83.42;99635.16;5081670;28;20503;-83
2022/10/14 10:53:15;;;;;;;29.73;19.88;;;;;;;16.54;82.68;99658.25;5081304;28;20024;-82
2022/10/14 10:55:55;;;;;;;28.30;21.00;;;;;;;16.67;82.17;99655.56;5080981;28;20024;-82
2022/10/14 10:58:35;;;;;;;31.65;21.30;;;;;;;16.73;80.68;99656.94;5085937;28;20035;-82
2022/10/14 11:01:04;;;;;;;28.98;20.80;;;;;;;16.69;80.63;99651.06;5082031;28;20047;-82
2022/10/14 11:03:53;;;;;;;30.33;20.52;;;;;;;16.86;79.37;99641.97;5078961;28;20060;-82
2022/10/14 11:12:19;;;;;;;26.27;17.45;;;;;;;17.01;80.01;99630.31;4989659;28;20132;-83
2022/10/14 11:14:56;;;;;;;26.15;17.77;;;;;;;17.13;79.21;99637.31;4989556;28;20572;-83
2022/10/14 11:17:45;;;;;;;25.00;16.20;;;;;;;17.22;79.81;99638.41;4989806;28;20038;-83
2022/10/14 11:20:35;;;;;;;20.92;15.40;;;;;;;17.30;80.17;99637.84;4989667;28;20112;-83
2022/10/14 11:23:19;;;;;;;21.60;14.75;;;;;;;17.39;79.81;99647.69;4989661;28;20037;-83
2022/10/14 11:25:55;;;;;;;18.92;14.73;;;;;;;17.38;79.92;99624.97;4989692;28;20429;-83
2022/10/14 11:28:23;;;;;;;18.27;14.05;;;;;;;17.47;79.70;99634.78;4989983;28;20034;-83
2022/10/14 11:31:03;;;;;;;23.48;13.80;;;;;;;17.50;79.31;99629.31;4993551;28;20397;-83
2022/10/14 11:34:02;;;;;;;22.80;14.65;;;;;;;17.49;79.97;99621.50;4993662;28;20034;-82